sensor_id;sensor_type;location;lat;lon;timestamp;P1;durP1;ratioP1;P2;durP2;ratioP2
7997;SDS011;4044;49.814;7.828;2023-04-29T00:02:09;9.90;;;7.10;;
7997;SDS011;4044;49.814;7.828;2023-04-29T00:04:34;6.93;;;6.23;;
7997;SDS011;4044;49.814;7.828;2023-04-29T00:07:00;7.90;;;6.60;;
7997;SDS011;4044;49.814;7.828;2023-04-29T00:09:26;9.23;;;6.90;;
7997;SDS011;4044;49.814;7.828;2023-04-29T00:11:51;9.70;;;6.30;;
7997;SDS011;4044;49.814;7.828;2023-04-29T00:14:17;7.10;;;6.07;;
7997;SDS011;4044;49.814;7.828;2023-04-29T00:16:42;9.23;;;6.80;;
7997;SDS011;4044;49.814;7.828;2023-04-29T00:19:08;6.60;;;6.00;;
7997;SDS011;4044;49.814;7.828;2023-04-29T00:21:33;6.43;;;5.23;;
7997;SDS011;4044;49.814;7.828;2023-04-29T00:23:59;7.70;;;5.70;;
7997;SDS011;4044;49.814;7.828;2023-04-29T00:26:24;7.87;;;5.10;;
7997;SDS011;4044;49.814;7.828;2023-04-29T00:28:50;7.33;;;5.17;;
7997;SDS011;4044;49.814;7.828;2023-04-29T00:31:15;6.87;;;5.17;;
7997;SDS011;4044;49.814;7.828;2023-04-29T00:33:41;10.13;;;4.90;;
7997;SDS011;4044;49.814;7.828;2023-04-29T00:36:07;5.77;;;4.23;;
7997;SDS011;4044;49.814;7.828;2023-04-29T00:38:33;5.10;;;4.60;;
7997;SDS011;4044;49.814;7.828;2023-04-29T00:40:59;5.53;;;4.80;;
7997;SDS011;4044;49.814;7.828;2023-04-29T00:43:25;6.33;;;5.10;;
7997;SDS011;4044;49.814;7.828;2023-04-29T00:45:50;4.97;;;4.47;;
7997;SDS011;4044;49.814;7.828;2023-04-29T00:48:16;7.30;;;4.27;;
7997;SDS011;4044;49.814;7.828;2023-04-29T00:50:41;4.97;;;3.33;;
7997;SDS011;4044;49.814;7.828;2023-04-29T00:53:08;3.77;;;3.07;;
7997;SDS011;4044;49.814;7.828;2023-04-29T00:55:36;4.87;;;4.20;;
7997;SDS011;4044;49.814;7.828;2023-04-29T00:58:02;37.43;;;7.27;;
7997;SDS011;4044;49.814;7.828;2023-04-29T01:00:28;49.70;;;8.50;;
7997;SDS011;4044;49.814;7.828;2023-04-29T01:02:55;36.50;;;7.27;;
7997;SDS011;4044;49.814;7.828;2023-04-29T01:05:21;53.70;;;7.07;;
7997;SDS011;4044;49.814;7.828;2023-04-29T01:10:43;42.20;;;6.47;;
7997;SDS011;4044;49.814;7.828;2023-04-29T01:13:16;52.93;;;7.57;;
7997;SDS011;4044;49.814;7.828;2023-04-29T01:18:40;7.67;;;4.67;;
7997;SDS011;4044;49.814;7.828;2023-04-29T01:21:09;10.30;;;5.03;;
7997;SDS011;4044;49.814;7.828;2023-04-29T01:23:35;6.10;;;3.80;;
7997;SDS011;4044;49.814;7.828;2023-04-29T01:26:00;6.83;;;4.00;;
7997;SDS011;4044;49.814;7.828;2023-04-29T01:28:45;6.63;;;4.23;;
7997;SDS011;4044;49.814;7.828;2023-04-29T01:31:27;6.93;;;4.37;;
7997;SDS011;4044;49.814;7.828;2023-04-29T01:34:11;4.90;;;4.50;;
7997;SDS011;4044;49.814;7.828;2023-04-29T01:39:50;14.07;;;5.90;;
7997;SDS011;4044;49.814;7.828;2023-04-29T01:42:39;6.03;;;5.43;;
7997;SDS011;4044;49.814;7.828;2023-04-29T01:45:09;9.53;;;5.60;;
7997;SDS011;4044;49.814;7.828;2023-04-29T01:47:38;9.67;;;6.07;;
7997;SDS011;4044;49.814;7.828;2023-04-29T01:50:05;7.50;;;5.80;;
7997;SDS011;4044;49.814;7.828;2023-04-29T01:52:31;7.60;;;5.80;;
7997;SDS011;4044;49.814;7.828;2023-04-29T01:54:56;6.20;;;5.60;;
7997;SDS011;4044;49.814;7.828;2023-04-29T01:57:22;5.93;;;5.33;;
7997;SDS011;4044;49.814;7.828;2023-04-29T01:59:47;6.50;;;4.93;;
7997;SDS011;4044;49.814;7.828;2023-04-29T02:02:13;9.97;;;6.93;;
7997;SDS011;4044;49.814;7.828;2023-04-29T02:04:39;6.43;;;5.40;;
7997;SDS011;4044;49.814;7.828;2023-04-29T02:07:05;7.23;;;5.53;;
7997;SDS011;4044;49.814;7.828;2023-04-29T02:09:31;6.20;;;5.37;;
7997;SDS011;4044;49.814;7.828;2023-04-29T02:11:56;6.67;;;5.63;;
7997;SDS011;4044;49.814;7.828;2023-04-29T02:14:22;6.00;;;5.20;;
7997;SDS011;4044;49.814;7.828;2023-04-29T02:16:47;8.83;;;5.13;;
7997;SDS011;4044;49.814;7.828;2023-04-29T02:19:13;6.70;;;5.03;;
7997;SDS011;4044;49.814;7.828;2023-04-29T02:21:38;6.60;;;5.77;;
7997;SDS011;4044;49.814;7.828;2023-04-29T02:24:04;6.77;;;5.97;;
7997;SDS011;4044;49.814;7.828;2023-04-29T02:26:30;4.93;;;4.43;;
7997;SDS011;4044;49.814;7.828;2023-04-29T02:28:56;7.80;;;4.47;;
7997;SDS011;4044;49.814;7.828;2023-04-29T02:31:22;5.43;;;4.90;;
7997;SDS011;4044;49.814;7.828;2023-04-29T02:33:48;4.67;;;4.33;;
7997;SDS011;4044;49.814;7.828;2023-04-29T02:36:13;5.07;;;4.67;;
7997;SDS011;4044;49.814;7.828;2023-04-29T02:38:39;7.10;;;4.50;;
7997;SDS011;4044;49.814;7.828;2023-04-29T02:41:04;6.73;;;4.77;;
7997;SDS011;4044;49.814;7.828;2023-04-29T02:43:30;8.17;;;4.73;;
7997;SDS011;4044;49.814;7.828;2023-04-29T02:45:56;4.70;;;4.30;;
7997;SDS011;4044;49.814;7.828;2023-04-29T02:48:21;6.57;;;5.90;;
7997;SDS011;4044;49.814;7.828;2023-04-29T02:50:47;6.73;;;5.23;;
7997;SDS011;4044;49.814;7.828;2023-04-29T02:53:13;4.17;;;3.87;;
7997;SDS011;4044;49.814;7.828;2023-04-29T02:55:38;6.03;;;4.30;;
7997;SDS011;4044;49.814;7.828;2023-04-29T02:58:04;5.13;;;3.90;;
7997;SDS011;4044;49.814;7.828;2023-04-29T03:00:30;5.10;;;4.00;;
7997;SDS011;4044;49.814;7.828;2023-04-29T03:02:55;4.77;;;4.30;;
7997;SDS011;4044;49.814;7.828;2023-04-29T03:05:21;4.77;;;4.33;;
7997;SDS011;4044;49.814;7.828;2023-04-29T03:07:47;5.20;;;4.10;;
7997;SDS011;4044;49.814;7.828;2023-04-29T03:10:12;4.30;;;3.57;;
7997;SDS011;4044;49.814;7.828;2023-04-29T03:12:38;4.77;;;4.23;;
7997;SDS011;4044;49.814;7.828;2023-04-29T03:15:04;5.17;;;4.30;;
7997;SDS011;4044;49.814;7.828;2023-04-29T03:17:34;5.07;;;4.40;;
7997;SDS011;4044;49.814;7.828;2023-04-29T03:20:00;4.03;;;3.73;;
7997;SDS011;4044;49.814;7.828;2023-04-29T03:22:26;6.37;;;4.23;;
7997;SDS011;4044;49.814;7.828;2023-04-29T03:24:52;6.00;;;4.40;;
7997;SDS011;4044;49.814;7.828;2023-04-29T03:27:17;4.67;;;4.27;;
7997;SDS011;4044;49.814;7.828;2023-04-29T03:29:43;5.70;;;5.10;;
7997;SDS011;4044;49.814;7.828;2023-04-29T03:32:09;7.07;;;3.93;;
7997;SDS011;4044;49.814;7.828;2023-04-29T03:34:34;6.33;;;4.17;;
7997;SDS011;4044;49.814;7.828;2023-04-29T03:37:00;4.93;;;4.30;;
7997;SDS011;4044;49.814;7.828;2023-04-29T03:39:26;5.00;;;4.50;;
7997;SDS011;4044;49.814;7.828;2023-04-29T03:41:56;6.10;;;4.63;;
7997;SDS011;4044;49.814;7.828;2023-04-29T03:44:22;5.97;;;4.80;;
7997;SDS011;4044;49.814;7.828;2023-04-29T03:46:47;5.87;;;4.30;;
7997;SDS011;4044;49.814;7.828;2023-04-29T03:49:13;8.23;;;4.17;;
7997;SDS011;4044;49.814;7.828;2023-04-29T03:51:39;4.60;;;4.20;;
7997;SDS011;4044;49.814;7.828;2023-04-29T03:54:05;4.33;;;4.00;;
7997;SDS011;4044;49.814;7.828;2023-04-29T03:56:32;4.87;;;3.80;;
7997;SDS011;4044;49.814;7.828;2023-04-29T03:58:57;3.70;;;3.40;;
7997;SDS011;4044;49.814;7.828;2023-04-29T04:01:23;4.20;;;3.80;;
7997;SDS011;4044;49.814;7.828;2023-04-29T04:03:48;3.70;;;3.40;;
7997;SDS011;4044;49.814;7.828;2023-04-29T04:06:14;5.20;;;3.77;;
7997;SDS011;4044;49.814;7.828;2023-04-29T04:08:39;4.23;;;3.83;;
7997;SDS011;4044;49.814;7.828;2023-04-29T04:11:05;4.00;;;3.60;;
7997;SDS011;4044;49.814;7.828;2023-04-29T04:13:31;5.47;;;3.70;;
7997;SDS011;4044;49.814;7.828;2023-04-29T04:15:56;7.70;;;3.87;;
7997;SDS011;4044;49.814;7.828;2023-04-29T04:18:22;3.70;;;3.40;;
7997;SDS011;4044;49.814;7.828;2023-04-29T04:20:48;4.53;;;3.60;;
7997;SDS011;4044;49.814;7.828;2023-04-29T04:23:13;3.80;;;3.50;;
7997;SDS011;4044;49.814;7.828;2023-04-29T04:25:46;6.63;;;4.87;;
7997;SDS011;4044;49.814;7.828;2023-04-29T04:28:12;3.97;;;3.67;;
7997;SDS011;4044;49.814;7.828;2023-04-29T04:30:38;8.67;;;4.17;;
7997;SDS011;4044;49.814;7.828;2023-04-29T04:33:03;4.33;;;3.93;;
7997;SDS011;4044;49.814;7.828;2023-04-29T04:35:30;4.90;;;3.93;;
7997;SDS011;4044;49.814;7.828;2023-04-29T04:37:56;4.13;;;3.73;;
7997;SDS011;4044;49.814;7.828;2023-04-29T04:40:21;5.40;;;3.93;;
7997;SDS011;4044;49.814;7.828;2023-04-29T04:42:47;3.60;;;3.37;;
7997;SDS011;4044;49.814;7.828;2023-04-29T04:45:12;7.23;;;4.33;;
7997;SDS011;4044;49.814;7.828;2023-04-29T04:47:39;4.77;;;4.10;;
7997;SDS011;4044;49.814;7.828;2023-04-29T04:50:05;5.13;;;4.63;;
7997;SDS011;4044;49.814;7.828;2023-04-29T04:52:32;4.80;;;4.30;;
7997;SDS011;4044;49.814;7.828;2023-04-29T04:54:57;5.47;;;4.30;;
7997;SDS011;4044;49.814;7.828;2023-04-29T04:57:23;5.43;;;4.53;;
7997;SDS011;4044;49.814;7.828;2023-04-29T04:59:48;5.63;;;4.90;;
7997;SDS011;4044;49.814;7.828;2023-04-29T05:02:14;4.73;;;4.37;;
7997;SDS011;4044;49.814;7.828;2023-04-29T05:04:39;6.23;;;4.97;;
7997;SDS011;4044;49.814;7.828;2023-04-29T05:07:05;8.43;;;6.10;;
7997;SDS011;4044;49.814;7.828;2023-04-29T05:09:31;8.13;;;6.53;;
7997;SDS011;4044;49.814;7.828;2023-04-29T05:11:56;8.23;;;6.20;;
7997;SDS011;4044;49.814;7.828;2023-04-29T05:14:23;8.53;;;7.13;;
7997;SDS011;4044;49.814;7.828;2023-04-29T05:16:49;10.97;;;7.07;;
7997;SDS011;4044;49.814;7.828;2023-04-29T05:19:16;10.20;;;7.90;;
7997;SDS011;4044;49.814;7.828;2023-04-29T05:21:42;9.77;;;8.27;;
7997;SDS011;4044;49.814;7.828;2023-04-29T05:24:08;10.00;;;7.73;;
7997;SDS011;4044;49.814;7.828;2023-04-29T05:26:33;7.90;;;6.77;;
7997;SDS011;4044;49.814;7.828;2023-04-29T05:28:59;10.47;;;7.50;;
7997;SDS011;4044;49.814;7.828;2023-04-29T05:31:25;8.37;;;7.50;;
7997;SDS011;4044;49.814;7.828;2023-04-29T05:33:51;8.07;;;7.33;;
7997;SDS011;4044;49.814;7.828;2023-04-29T05:36:17;8.63;;;7.70;;
7997;SDS011;4044;49.814;7.828;2023-04-29T05:38:42;11.73;;;8.90;;
7997;SDS011;4044;49.814;7.828;2023-04-29T05:41:09;13.07;;;9.17;;
7997;SDS011;4044;49.814;7.828;2023-04-29T05:43:35;12.17;;;9.87;;
7997;SDS011;4044;49.814;7.828;2023-04-29T05:46:00;11.70;;;9.60;;
7997;SDS011;4044;49.814;7.828;2023-04-29T05:48:26;10.50;;;9.40;;
7997;SDS011;4044;49.814;7.828;2023-04-29T05:50:53;11.33;;;9.43;;
7997;SDS011;4044;49.814;7.828;2023-04-29T05:53:18;14.37;;;10.07;;
7997;SDS011;4044;49.814;7.828;2023-04-29T05:55:44;12.27;;;10.50;;
7997;SDS011;4044;49.814;7.828;2023-04-29T05:58:10;11.20;;;10.10;;
7997;SDS011;4044;49.814;7.828;2023-04-29T06:00:36;15.17;;;12.20;;
7997;SDS011;4044;49.814;7.828;2023-04-29T06:03:02;13.67;;;11.20;;
7997;SDS011;4044;49.814;7.828;2023-04-29T06:05:27;14.77;;;11.83;;
7997;SDS011;4044;49.814;7.828;2023-04-29T06:07:53;15.47;;;12.00;;
7997;SDS011;4044;49.814;7.828;2023-04-29T06:10:18;12.87;;;11.43;;
7997;SDS011;4044;49.814;7.828;2023-04-29T06:12:44;11.80;;;10.60;;
7997;SDS011;4044;49.814;7.828;2023-04-29T06:15:10;14.17;;;11.10;;
7997;SDS011;4044;49.814;7.828;2023-04-29T06:17:36;11.80;;;10.33;;
7997;SDS011;4044;49.814;7.828;2023-04-29T06:20:01;13.37;;;11.03;;
7997;SDS011;4044;49.814;7.828;2023-04-29T06:22:27;12.53;;;9.73;;
7997;SDS011;4044;49.814;7.828;2023-04-29T06:24:53;9.97;;;8.97;;
7997;SDS011;4044;49.814;7.828;2023-04-29T06:27:18;12.27;;;9.63;;
7997;SDS011;4044;49.814;7.828;2023-04-29T06:29:44;10.57;;;9.47;;
7997;SDS011;4044;49.814;7.828;2023-04-29T06:32:09;11.00;;;9.33;;
7997;SDS011;4044;49.814;7.828;2023-04-29T06:34:35;13.10;;;10.00;;
7997;SDS011;4044;49.814;7.828;2023-04-29T06:37:01;8.97;;;8.07;;
7997;SDS011;4044;49.814;7.828;2023-04-29T06:39:26;10.87;;;9.23;;
7997;SDS011;4044;49.814;7.828;2023-04-29T06:41:53;9.97;;;8.83;;
7997;SDS011;4044;49.814;7.828;2023-04-29T06:44:18;9.00;;;7.57;;
7997;SDS011;4044;49.814;7.828;2023-04-29T06:46:44;7.17;;;6.47;;
7997;SDS011;4044;49.814;7.828;2023-04-29T06:49:09;9.53;;;6.30;;
7997;SDS011;4044;49.814;7.828;2023-04-29T06:51:38;7.70;;;5.90;;
7997;SDS011;4044;49.814;7.828;2023-04-29T06:54:03;6.77;;;5.10;;
7997;SDS011;4044;49.814;7.828;2023-04-29T06:56:29;5.40;;;4.90;;
7997;SDS011;4044;49.814;7.828;2023-04-29T06:58:55;4.70;;;4.30;;
7997;SDS011;4044;49.814;7.828;2023-04-29T07:01:20;6.23;;;5.03;;
7997;SDS011;4044;49.814;7.828;2023-04-29T07:03:46;6.37;;;4.53;;
7997;SDS011;4044;49.814;7.828;2023-04-29T07:06:11;6.33;;;5.10;;
7997;SDS011;4044;49.814;7.828;2023-04-29T07:08:37;5.23;;;4.73;;
7997;SDS011;4044;49.814;7.828;2023-04-29T07:11:02;5.53;;;4.63;;
7997;SDS011;4044;49.814;7.828;2023-04-29T07:13:28;5.20;;;4.67;;
7997;SDS011;4044;49.814;7.828;2023-04-29T07:15:54;5.57;;;4.70;;
7997;SDS011;4044;49.814;7.828;2023-04-29T07:18:19;5.53;;;5.00;;
7997;SDS011;4044;49.814;7.828;2023-04-29T07:20:45;5.87;;;5.27;;
7997;SDS011;4044;49.814;7.828;2023-04-29T07:23:11;6.70;;;4.93;;
7997;SDS011;4044;49.814;7.828;2023-04-29T07:25:38;6.37;;;5.10;;
7997;SDS011;4044;49.814;7.828;2023-04-29T07:28:05;8.00;;;5.73;;
7997;SDS011;4044;49.814;7.828;2023-04-29T07:30:32;7.00;;;6.17;;
7997;SDS011;4044;49.814;7.828;2023-04-29T07:32:57;7.37;;;5.70;;
7997;SDS011;4044;49.814;7.828;2023-04-29T07:35:23;6.67;;;5.93;;
7997;SDS011;4044;49.814;7.828;2023-04-29T07:37:48;6.07;;;5.07;;
7997;SDS011;4044;49.814;7.828;2023-04-29T07:40:14;6.23;;;5.63;;
7997;SDS011;4044;49.814;7.828;2023-04-29T07:42:39;6.70;;;6.10;;
7997;SDS011;4044;49.814;7.828;2023-04-29T07:45:05;6.93;;;6.00;;
7997;SDS011;4044;49.814;7.828;2023-04-29T07:47:31;6.93;;;6.23;;
7997;SDS011;4044;49.814;7.828;2023-04-29T07:49:56;5.80;;;5.00;;
7997;SDS011;4044;49.814;7.828;2023-04-29T07:52:22;5.43;;;4.97;;
7997;SDS011;4044;49.814;7.828;2023-04-29T07:54:48;6.43;;;5.70;;
7997;SDS011;4044;49.814;7.828;2023-04-29T07:57:13;6.83;;;6.23;;
7997;SDS011;4044;49.814;7.828;2023-04-29T07:59:39;5.87;;;5.27;;
7997;SDS011;4044;49.814;7.828;2023-04-29T08:02:05;6.30;;;5.70;;
7997;SDS011;4044;49.814;7.828;2023-04-29T08:04:30;5.80;;;5.30;;
7997;SDS011;4044;49.814;7.828;2023-04-29T08:06:56;5.67;;;5.10;;
7997;SDS011;4044;49.814;7.828;2023-04-29T08:09:22;5.50;;;5.00;;
7997;SDS011;4044;49.814;7.828;2023-04-29T08:11:47;8.75;;;5.50;;
7997;SDS011;4044;49.814;7.828;2023-04-29T08:14:12;5.00;;;4.60;;
7997;SDS011;4044;49.814;7.828;2023-04-29T08:16:38;5.07;;;4.60;;
7997;SDS011;4044;49.814;7.828;2023-04-29T08:19:03;5.10;;;4.60;;
7997;SDS011;4044;49.814;7.828;2023-04-29T08:21:29;4.63;;;4.23;;
7997;SDS011;4044;49.814;7.828;2023-04-29T08:23:56;4.67;;;4.27;;
7997;SDS011;4044;49.814;7.828;2023-04-29T08:26:21;3.87;;;3.53;;
7997;SDS011;4044;49.814;7.828;2023-04-29T08:28:47;4.60;;;4.20;;
7997;SDS011;4044;49.814;7.828;2023-04-29T08:31:16;4.50;;;4.10;;
7997;SDS011;4044;49.814;7.828;2023-04-29T08:33:43;4.50;;;4.10;;
7997;SDS011;4044;49.814;7.828;2023-04-29T08:36:08;4.97;;;4.47;;
7997;SDS011;4044;49.814;7.828;2023-04-29T08:38:34;4.03;;;3.73;;
7997;SDS011;4044;49.814;7.828;2023-04-29T08:41:00;4.60;;;4.20;;
7997;SDS011;4044;49.814;7.828;2023-04-29T08:43:26;5.73;;;5.20;;
7997;SDS011;4044;49.814;7.828;2023-04-29T08:45:52;5.53;;;5.13;;
7997;SDS011;4044;49.814;7.828;2023-04-29T08:48:18;5.93;;;5.22;;
7997;SDS011;4044;49.814;7.828;2023-04-29T08:50:43;5.45;;;5.05;;
7997;SDS011;4044;49.814;7.828;2023-04-29T08:53:10;5.70;;;5.30;;
7997;SDS011;4044;49.814;7.828;2023-04-29T08:58:06;6.37;;;5.77;;
7997;SDS011;4044;49.814;7.828;2023-04-29T09:00:33;6.03;;;5.53;;
7997;SDS011;4044;49.814;7.828;2023-04-29T09:02:59;6.00;;;5.47;;
7997;SDS011;4044;49.814;7.828;2023-04-29T09:05:28;6.47;;;5.87;;
7997;SDS011;4044;49.814;7.828;2023-04-29T09:07:55;6.97;;;6.37;;
7997;SDS011;4044;49.814;7.828;2023-04-29T09:10:23;6.22;;;5.63;;
7997;SDS011;4044;49.814;7.828;2023-04-29T09:12:50;7.03;;;6.43;;
7997;SDS011;4044;49.814;7.828;2023-04-29T09:15:15;7.05;;;6.35;;
7997;SDS011;4044;49.814;7.828;2023-04-29T09:17:44;6.40;;;5.80;;
7997;SDS011;4044;49.814;7.828;2023-04-29T09:22:47;7.45;;;6.70;;
7997;SDS011;4044;49.814;7.828;2023-04-29T09:25:14;7.20;;;6.60;;
7997;SDS011;4044;49.814;7.828;2023-04-29T09:27:39;7.10;;;6.40;;
7997;SDS011;4044;49.814;7.828;2023-04-29T09:30:05;7.30;;;6.70;;
7997;SDS011;4044;49.814;7.828;2023-04-29T09:32:32;6.40;;;5.80;;
7997;SDS011;4044;49.814;7.828;2023-04-29T09:34:57;6.13;;;5.63;;
7997;SDS011;4044;49.814;7.828;2023-04-29T09:37:26;7.45;;;6.75;;
7997;SDS011;4044;49.814;7.828;2023-04-29T09:39:52;6.22;;;5.72;;
7997;SDS011;4044;49.814;7.828;2023-04-29T09:42:18;5.93;;;5.43;;
7997;SDS011;4044;49.814;7.828;2023-04-29T09:44:44;5.70;;;5.20;;
7997;SDS011;4044;49.814;7.828;2023-04-29T09:47:10;5.68;;;5.18;;
7997;SDS011;4044;49.814;7.828;2023-04-29T09:49:41;5.63;;;5.07;;
7997;SDS011;4044;49.814;7.828;2023-04-29T09:52:10;5.63;;;5.15;;
7997;SDS011;4044;49.814;7.828;2023-04-29T09:54:37;6.00;;;5.50;;
7997;SDS011;4044;49.814;7.828;2023-04-29T09:57:04;6.53;;;5.90;;
7997;SDS011;4044;49.814;7.828;2023-04-29T09:59:32;6.50;;;5.78;;
7997;SDS011;4044;49.814;7.828;2023-04-29T10:02:01;6.00;;;5.50;;
7997;SDS011;4044;49.814;7.828;2023-04-29T10:04:44;5.80;;;5.30;;
7997;SDS011;4044;49.814;7.828;2023-04-29T10:07:16;6.53;;;5.70;;
7997;SDS011;4044;49.814;7.828;2023-04-29T10:09:46;5.75;;;5.25;;
7997;SDS011;4044;49.814;7.828;2023-04-29T10:12:16;6.03;;;5.40;;
7997;SDS011;4044;49.814;7.828;2023-04-29T10:14:44;5.85;;;5.35;;
7997;SDS011;4044;49.814;7.828;2023-04-29T10:17:17;6.05;;;5.30;;
7997;SDS011;4044;49.814;7.828;2023-04-29T10:19:56;5.70;;;5.10;;
7997;SDS011;4044;49.814;7.828;2023-04-29T10:22:39;5.60;;;5.10;;
7997;SDS011;4044;49.814;7.828;2023-04-29T10:25:11;5.60;;;5.05;;
7997;SDS011;4044;49.814;7.828;2023-04-29T10:27:38;5.37;;;4.87;;
7997;SDS011;4044;49.814;7.828;2023-04-29T10:30:08;4.72;;;4.32;;
7997;SDS011;4044;49.814;7.828;2023-04-29T10:32:39;4.30;;;4.00;;
7997;SDS011;4044;49.814;7.828;2023-04-29T10:35:06;4.45;;;4.05;;
7997;SDS011;4044;49.814;7.828;2023-04-29T10:37:34;4.40;;;4.03;;
7997;SDS011;4044;49.814;7.828;2023-04-29T10:42:42;4.70;;;4.30;;
7997;SDS011;4044;49.814;7.828;2023-04-29T10:50:33;4.20;;;3.90;;
7997;SDS011;4044;49.814;7.828;2023-04-29T10:53:23;4.33;;;3.93;;
7997;SDS011;4044;49.814;7.828;2023-04-29T10:55:52;4.15;;;3.85;;
7997;SDS011;4044;49.814;7.828;2023-04-29T11:01:04;4.47;;;4.07;;
7997;SDS011;4044;49.814;7.828;2023-04-29T11:03:44;4.40;;;4.10;;
7997;SDS011;4044;49.814;7.828;2023-04-29T11:06:44;5.10;;;4.70;;
7997;SDS011;4044;49.814;7.828;2023-04-29T11:14:34;4.95;;;4.45;;
7997;SDS011;4044;49.814;7.828;2023-04-29T11:17:02;4.30;;;3.90;;
7997;SDS011;4044;49.814;7.828;2023-04-29T11:19:30;5.50;;;4.15;;
7997;SDS011;4044;49.814;7.828;2023-04-29T11:22:30;5.37;;;4.83;;
7997;SDS011;4044;49.814;7.828;2023-04-29T11:24:50;4.30;;;3.90;;
7997;SDS011;4044;49.814;7.828;2023-04-29T11:27:17;4.60;;;4.20;;
7997;SDS011;4044;49.814;7.828;2023-04-29T11:29:44;5.10;;;4.70;;
7997;SDS011;4044;49.814;7.828;2023-04-29T11:32:11;5.00;;;4.60;;
7997;SDS011;4044;49.814;7.828;2023-04-29T11:34:37;4.97;;;4.57;;
7997;SDS011;4044;49.814;7.828;2023-04-29T11:37:03;4.93;;;4.40;;
7997;SDS011;4044;49.814;7.828;2023-04-29T11:39:32;5.88;;;4.93;;
7997;SDS011;4044;49.814;7.828;2023-04-29T11:42:03;5.00;;;4.60;;
7997;SDS011;4044;49.814;7.828;2023-04-29T11:44:32;5.40;;;4.90;;
7997;SDS011;4044;49.814;7.828;2023-04-29T11:47:05;4.25;;;3.95;;
7997;SDS011;4044;49.814;7.828;2023-04-29T11:49:32;4.85;;;4.25;;
7997;SDS011;4044;49.814;7.828;2023-04-29T11:51:58;4.70;;;4.30;;
7997;SDS011;4044;49.814;7.828;2023-04-29T11:54:25;4.30;;;3.95;;
7997;SDS011;4044;49.814;7.828;2023-04-29T11:56:54;4.03;;;3.72;;
7997;SDS011;4044;49.814;7.828;2023-04-29T11:59:21;3.95;;;3.70;;
7997;SDS011;4044;49.814;7.828;2023-04-29T12:01:49;3.95;;;3.50;;
7997;SDS011;4044;49.814;7.828;2023-04-29T12:04:16;4.13;;;3.83;;
7997;SDS011;4044;49.814;7.828;2023-04-29T12:06:42;4.22;;;3.83;;
7997;SDS011;4044;49.814;7.828;2023-04-29T12:09:07;4.03;;;3.40;;
7997;SDS011;4044;49.814;7.828;2023-04-29T12:11:33;3.90;;;3.60;;
7997;SDS011;4044;49.814;7.828;2023-04-29T12:14:00;3.70;;;3.50;;
7997;SDS011;4044;49.814;7.828;2023-04-29T12:16:30;4.45;;;4.05;;
7997;SDS011;4044;49.814;7.828;2023-04-29T12:18:59;4.22;;;3.90;;
7997;SDS011;4044;49.814;7.828;2023-04-29T12:21:25;4.00;;;3.70;;
7997;SDS011;4044;49.814;7.828;2023-04-29T12:23:51;3.97;;;3.67;;
7997;SDS011;4044;49.814;7.828;2023-04-29T12:26:18;3.58;;;3.30;;
7997;SDS011;4044;49.814;7.828;2023-04-29T12:28:44;4.25;;;3.95;;
7997;SDS011;4044;49.814;7.828;2023-04-29T12:31:10;3.90;;;3.60;;
7997;SDS011;4044;49.814;7.828;2023-04-29T12:33:41;3.85;;;3.63;;
7997;SDS011;4044;49.814;7.828;2023-04-29T12:36:14;4.82;;;4.18;;
7997;SDS011;4044;49.814;7.828;2023-04-29T12:38:42;5.65;;;5.10;;
7997;SDS011;4044;49.814;7.828;2023-04-29T12:41:07;4.53;;;4.22;;
7997;SDS011;4044;49.814;7.828;2023-04-29T12:43:33;4.72;;;4.40;;
7997;SDS011;4044;49.814;7.828;2023-04-29T12:46:02;5.82;;;5.32;;
7997;SDS011;4044;49.814;7.828;2023-04-29T12:48:32;6.70;;;5.78;;
7997;SDS011;4044;49.814;7.828;2023-04-29T12:51:01;5.40;;;5.00;;
7997;SDS011;4044;49.814;7.828;2023-04-29T12:53:28;5.20;;;4.47;;
7997;SDS011;4044;49.814;7.828;2023-04-29T12:55:54;4.80;;;4.40;;
7997;SDS011;4044;49.814;7.828;2023-04-29T12:58:20;4.93;;;4.50;;
7997;SDS011;4044;49.814;7.828;2023-04-29T13:00:46;5.03;;;4.60;;
7997;SDS011;4044;49.814;7.828;2023-04-29T13:03:11;4.45;;;4.15;;
7997;SDS011;4044;49.814;7.828;2023-04-29T13:05:37;3.53;;;3.33;;
7997;SDS011;4044;49.814;7.828;2023-04-29T13:08:03;4.30;;;3.90;;
7997;SDS011;4044;49.814;7.828;2023-04-29T13:10:32;4.25;;;3.95;;
7997;SDS011;4044;49.814;7.828;2023-04-29T13:12:58;4.50;;;4.20;;
7997;SDS011;4044;49.814;7.828;2023-04-29T13:15:24;4.35;;;4.05;;
7997;SDS011;4044;49.814;7.828;2023-04-29T13:17:51;4.60;;;4.20;;
7997;SDS011;4044;49.814;7.828;2023-04-29T13:20:16;3.95;;;3.65;;
7997;SDS011;4044;49.814;7.828;2023-04-29T13:22:42;4.30;;;4.00;;
7997;SDS011;4044;49.814;7.828;2023-04-29T13:25:08;4.60;;;4.20;;
7997;SDS011;4044;49.814;7.828;2023-04-29T13:27:35;3.83;;;3.55;;
7997;SDS011;4044;49.814;7.828;2023-04-29T13:30:01;4.15;;;3.83;;
7997;SDS011;4044;49.814;7.828;2023-04-29T13:32:27;4.55;;;4.18;;
7997;SDS011;4044;49.814;7.828;2023-04-29T13:34:52;4.32;;;4.03;;
7997;SDS011;4044;49.814;7.828;2023-04-29T13:37:18;3.80;;;3.50;;
7997;SDS011;4044;49.814;7.828;2023-04-29T13:39:44;4.15;;;3.85;;
7997;SDS011;4044;49.814;7.828;2023-04-29T13:42:09;3.42;;;3.10;;
7997;SDS011;4044;49.814;7.828;2023-04-29T13:44:35;3.97;;;3.67;;
7997;SDS011;4044;49.814;7.828;2023-04-29T13:47:01;4.22;;;3.92;;
7997;SDS011;4044;49.814;7.828;2023-04-29T13:49:28;3.53;;;3.30;;
7997;SDS011;4044;49.814;7.828;2023-04-29T13:51:53;2.90;;;2.70;;
7997;SDS011;4044;49.814;7.828;2023-04-29T13:54:19;3.40;;;3.10;;
7997;SDS011;4044;49.814;7.828;2023-04-29T13:56:45;3.17;;;2.97;;
7997;SDS011;4044;49.814;7.828;2023-04-29T13:59:12;3.22;;;3.03;;
7997;SDS011;4044;49.814;7.828;2023-04-29T14:01:37;3.42;;;3.13;;
7997;SDS011;4044;49.814;7.828;2023-04-29T14:04:03;3.53;;;3.33;;
7997;SDS011;4044;49.814;7.828;2023-04-29T14:06:29;3.58;;;3.28;;
7997;SDS011;4044;49.814;7.828;2023-04-29T14:08:56;3.70;;;3.40;;
7997;SDS011;4044;49.814;7.828;2023-04-29T14:11:22;3.38;;;3.17;;
7997;SDS011;4044;49.814;7.828;2023-04-29T14:13:48;3.38;;;3.13;;
7997;SDS011;4044;49.814;7.828;2023-04-29T14:16:13;3.50;;;3.20;;
7997;SDS011;4044;49.814;7.828;2023-04-29T14:18:39;3.67;;;3.45;;
7997;SDS011;4044;49.814;7.828;2023-04-29T14:21:05;3.70;;;3.40;;
7997;SDS011;4044;49.814;7.828;2023-04-29T14:23:30;3.70;;;3.40;;
7997;SDS011;4044;49.814;7.828;2023-04-29T14:25:56;3.50;;;3.30;;
7997;SDS011;4044;49.814;7.828;2023-04-29T14:28:21;4.45;;;4.05;;
7997;SDS011;4044;49.814;7.828;2023-04-29T14:30:47;4.20;;;3.90;;
7997;SDS011;4044;49.814;7.828;2023-04-29T14:33:12;4.85;;;4.45;;
7997;SDS011;4044;49.814;7.828;2023-04-29T14:35:38;4.95;;;4.55;;
7997;SDS011;4044;49.814;7.828;2023-04-29T14:38:03;4.70;;;4.40;;
7997;SDS011;4044;49.814;7.828;2023-04-29T14:40:29;5.15;;;4.65;;
7997;SDS011;4044;49.814;7.828;2023-04-29T14:42:55;4.57;;;4.18;;
7997;SDS011;4044;49.814;7.828;2023-04-29T14:45:20;5.13;;;4.70;;
7997;SDS011;4044;49.814;7.828;2023-04-29T14:47:46;4.88;;;4.47;;
7997;SDS011;4044;49.814;7.828;2023-04-29T14:50:12;4.82;;;4.43;;
7997;SDS011;4044;49.814;7.828;2023-04-29T14:52:37;4.90;;;4.60;;
7997;SDS011;4044;49.814;7.828;2023-04-29T14:55:03;5.03;;;4.57;;
7997;SDS011;4044;49.814;7.828;2023-04-29T14:57:28;4.95;;;4.55;;
7997;SDS011;4044;49.814;7.828;2023-04-29T14:59:54;5.80;;;5.40;;
7997;SDS011;4044;49.814;7.828;2023-04-29T15:02:20;5.65;;;5.07;;
7997;SDS011;4044;49.814;7.828;2023-04-29T15:04:46;5.10;;;4.70;;
7997;SDS011;4044;49.814;7.828;2023-04-29T15:07:12;5.70;;;5.30;;
7997;SDS011;4044;49.814;7.828;2023-04-29T15:09:37;5.25;;;4.85;;
7997;SDS011;4044;49.814;7.828;2023-04-29T15:12:03;6.25;;;5.75;;
7997;SDS011;4044;49.814;7.828;2023-04-29T15:14:29;6.47;;;5.97;;
7997;SDS011;4044;49.814;7.828;2023-04-29T15:16:55;6.28;;;5.72;;
7997;SDS011;4044;49.814;7.828;2023-04-29T15:19:20;6.70;;;6.10;;
7997;SDS011;4044;49.814;7.828;2023-04-29T15:21:49;7.07;;;6.43;;
7997;SDS011;4044;49.814;7.828;2023-04-29T15:24:14;5.82;;;5.43;;
7997;SDS011;4044;49.814;7.828;2023-04-29T15:26:40;6.38;;;5.88;;
7997;SDS011;4044;49.814;7.828;2023-04-29T15:29:06;6.07;;;5.68;;
7997;SDS011;4044;49.814;7.828;2023-04-29T15:31:31;6.70;;;6.18;;
7997;SDS011;4044;49.814;7.828;2023-04-29T15:33:57;6.70;;;6.20;;
7997;SDS011;4044;49.814;7.828;2023-04-29T15:36:29;6.57;;;6.05;;
7997;SDS011;4044;49.814;7.828;2023-04-29T15:38:57;6.38;;;5.72;;
7997;SDS011;4044;49.814;7.828;2023-04-29T15:41:23;6.82;;;6.32;;